sensor_id;sensor_type;location;lat;lon;timestamp;P1;durP1;ratioP1;P2;durP2;ratioP2
3036;SDS011;1528;52.550;13.408;2022-07-19T00:02:34;16.50;;;15.50;;
3036;SDS011;1528;52.550;13.408;2022-07-19T00:05:20;14.47;;;12.77;;
3036;SDS011;1528;52.550;13.408;2022-07-19T00:08:07;18.57;;;17.30;;
3036;SDS011;1528;52.550;13.408;2022-07-19T00:10:52;17.23;;;16.07;;
3036;SDS011;1528;52.550;13.408;2022-07-19T00:13:38;20.47;;;19.10;;
3036;SDS011;1528;52.550;13.408;2022-07-19T00:16:24;20.67;;;19.27;;
3036;SDS011;1528;52.550;13.408;2022-07-19T00:19:09;24.23;;;22.63;;
3036;SDS011;1528;52.550;13.408;2022-07-19T00:21:54;20.70;;;19.17;;
3036;SDS011;1528;52.550;13.408;2022-07-19T00:24:41;22.93;;;21.33;;
3036;SDS011;1528;52.550;13.408;2022-07-19T00:27:27;21.23;;;19.73;;
3036;SDS011;1528;52.550;13.408;2022-07-19T00:30:12;19.30;;;17.87;;
3036;SDS011;1528;52.550;13.408;2022-07-19T00:32:58;20.30;;;18.70;;
3036;SDS011;1528;52.550;13.408;2022-07-19T00:35:45;22.20;;;20.90;;
3036;SDS011;1528;52.550;13.408;2022-07-19T00:38:30;21.87;;;20.47;;
3036;SDS011;1528;52.550;13.408;2022-07-19T00:41:17;22.23;;;20.83;;
3036;SDS011;1528;52.550;13.408;2022-07-19T00:44:02;20.73;;;19.33;;
3036;SDS011;1528;52.550;13.408;2022-07-19T00:46:48;20.90;;;19.23;;
3036;SDS011;1528;52.550;13.408;2022-07-19T00:49:34;20.60;;;19.50;;
3036;SDS011;1528;52.550;13.408;2022-07-19T00:52:20;21.70;;;20.40;;
3036;SDS011;1528;52.550;13.408;2022-07-19T00:55:07;23.80;;;22.47;;
3036;SDS011;1528;52.550;13.408;2022-07-19T00:57:54;17.70;;;16.50;;
3036;SDS011;1528;52.550;13.408;2022-07-19T01:00:41;20.27;;;18.40;;
3036;SDS011;1528;52.550;13.408;2022-07-19T01:03:27;15.20;;;14.00;;
3036;SDS011;1528;52.550;13.408;2022-07-19T01:06:13;19.33;;;18.13;;
3036;SDS011;1528;52.550;13.408;2022-07-19T01:08:59;18.67;;;17.57;;
3036;SDS011;1528;52.550;13.408;2022-07-19T01:11:44;22.50;;;21.40;;
3036;SDS011;1528;52.550;13.408;2022-07-19T01:14:31;19.37;;;18.20;;
3036;SDS011;1528;52.550;13.408;2022-07-19T01:17:18;17.50;;;16.30;;
3036;SDS011;1528;52.550;13.408;2022-07-19T01:20:04;17.77;;;16.40;;
3036;SDS011;1528;52.550;13.408;2022-07-19T01:22:52;16.83;;;15.80;;
3036;SDS011;1528;52.550;13.408;2022-07-19T01:25:37;17.10;;;16.03;;
3036;SDS011;1528;52.550;13.408;2022-07-19T01:28:23;17.03;;;15.90;;
3036;SDS011;1528;52.550;13.408;2022-07-19T01:31:08;15.60;;;14.50;;
3036;SDS011;1528;52.550;13.408;2022-07-19T01:33:54;15.07;;;13.87;;
3036;SDS011;1528;52.550;13.408;2022-07-19T01:36:40;14.67;;;13.70;;
3036;SDS011;1528;52.550;13.408;2022-07-19T01:39:27;13.27;;;12.57;;
3036;SDS011;1528;52.550;13.408;2022-07-19T01:42:12;15.20;;;14.03;;
3036;SDS011;1528;52.550;13.408;2022-07-19T01:44:57;14.00;;;13.20;;
3036;SDS011;1528;52.550;13.408;2022-07-19T01:47:43;14.47;;;13.53;;
3036;SDS011;1528;52.550;13.408;2022-07-19T01:50:28;12.87;;;12.07;;
3036;SDS011;1528;52.550;13.408;2022-07-19T01:53:14;13.40;;;12.40;;
3036;SDS011;1528;52.550;13.408;2022-07-19T01:56:01;13.40;;;12.60;;
3036;SDS011;1528;52.550;13.408;2022-07-19T01:58:48;12.57;;;11.63;;
3036;SDS011;1528;52.550;13.408;2022-07-19T02:01:34;14.27;;;13.37;;
3036;SDS011;1528;52.550;13.408;2022-07-19T02:04:19;11.43;;;10.73;;
3036;SDS011;1528;52.550;13.408;2022-07-19T02:07:05;12.40;;;11.60;;
3036;SDS011;1528;52.550;13.408;2022-07-19T02:09:50;12.60;;;11.80;;
3036;SDS011;1528;52.550;13.408;2022-07-19T02:12:37;13.70;;;12.80;;
3036;SDS011;1528;52.550;13.408;2022-07-19T02:15:22;14.00;;;12.70;;
3036;SDS011;1528;52.550;13.408;2022-07-19T02:18:08;14.97;;;14.07;;
3036;SDS011;1528;52.550;13.408;2022-07-19T02:20:54;17.97;;;16.67;;
3036;SDS011;1528;52.550;13.408;2022-07-19T02:23:39;17.50;;;16.20;;
3036;SDS011;1528;52.550;13.408;2022-07-19T02:26:25;17.40;;;16.00;;
3036;SDS011;1528;52.550;13.408;2022-07-19T02:29:11;16.83;;;15.30;;
3036;SDS011;1528;52.550;13.408;2022-07-19T02:31:57;16.27;;;14.90;;
3036;SDS011;1528;52.550;13.408;2022-07-19T02:34:42;16.50;;;15.40;;
3036;SDS011;1528;52.550;13.408;2022-07-19T02:37:28;15.07;;;14.00;;
3036;SDS011;1528;52.550;13.408;2022-07-19T02:40:13;15.47;;;14.47;;
3036;SDS011;1528;52.550;13.408;2022-07-19T02:42:59;14.83;;;13.50;;
3036;SDS011;1528;52.550;13.408;2022-07-19T02:45:46;15.90;;;14.90;;
3036;SDS011;1528;52.550;13.408;2022-07-19T02:48:31;16.10;;;15.10;;
3036;SDS011;1528;52.550;13.408;2022-07-19T02:51:16;15.63;;;14.30;;
3036;SDS011;1528;52.550;13.408;2022-07-19T02:54:02;15.10;;;14.10;;
3036;SDS011;1528;52.550;13.408;2022-07-19T02:56:47;14.37;;;13.37;;
3036;SDS011;1528;52.550;13.408;2022-07-19T02:59:33;13.40;;;12.10;;
3036;SDS011;1528;52.550;13.408;2022-07-19T03:02:19;14.93;;;13.73;;
3036;SDS011;1528;52.550;13.408;2022-07-19T03:05:05;17.80;;;16.40;;
3036;SDS011;1528;52.550;13.408;2022-07-19T03:07:51;13.90;;;13.10;;
3036;SDS011;1528;52.550;13.408;2022-07-19T03:10:37;14.67;;;13.50;;
3036;SDS011;1528;52.550;13.408;2022-07-19T03:13:23;15.83;;;14.63;;
3036;SDS011;1528;52.550;13.408;2022-07-19T03:16:08;14.67;;;13.77;;
3036;SDS011;1528;52.550;13.408;2022-07-19T03:18:55;12.50;;;11.60;;
3036;SDS011;1528;52.550;13.408;2022-07-19T03:21:40;13.37;;;12.17;;
3036;SDS011;1528;52.550;13.408;2022-07-19T03:24:26;15.10;;;14.10;;
3036;SDS011;1528;52.550;13.408;2022-07-19T03:27:11;15.03;;;14.13;;
3036;SDS011;1528;52.550;13.408;2022-07-19T03:29:57;13.00;;;11.90;;
3036;SDS011;1528;52.550;13.408;2022-07-19T03:32:42;14.07;;;12.97;;
3036;SDS011;1528;52.550;13.408;2022-07-19T03:35:29;13.70;;;12.70;;
3036;SDS011;1528;52.550;13.408;2022-07-19T03:38:15;13.30;;;12.40;;
3036;SDS011;1528;52.550;13.408;2022-07-19T03:41:01;14.00;;;13.03;;
3036;SDS011;1528;52.550;13.408;2022-07-19T03:43:47;13.47;;;12.43;;
3036;SDS011;1528;52.550;13.408;2022-07-19T03:46:32;13.77;;;12.90;;
3036;SDS011;1528;52.550;13.408;2022-07-19T03:49:18;13.10;;;12.20;;
3036;SDS011;1528;52.550;13.408;2022-07-19T03:52:05;13.77;;;12.87;;
3036;SDS011;1528;52.550;13.408;2022-07-19T03:54:50;12.77;;;11.93;;
3036;SDS011;1528;52.550;13.408;2022-07-19T03:57:36;12.87;;;11.97;;
3036;SDS011;1528;52.550;13.408;2022-07-19T04:00:21;14.10;;;13.07;;
3036;SDS011;1528;52.550;13.408;2022-07-19T04:03:07;12.97;;;11.90;;
3036;SDS011;1528;52.550;13.408;2022-07-19T04:05:52;13.20;;;12.30;;
3036;SDS011;1528;52.550;13.408;2022-07-19T04:08:39;11.93;;;11.10;;
3036;SDS011;1528;52.550;13.408;2022-07-19T04:11:25;13.10;;;12.10;;
3036;SDS011;1528;52.550;13.408;2022-07-19T04:14:11;12.53;;;11.83;;
3036;SDS011;1528;52.550;13.408;2022-07-19T04:16:56;12.80;;;12.00;;
3036;SDS011;1528;52.550;13.408;2022-07-19T04:19:42;14.80;;;13.70;;
3036;SDS011;1528;52.550;13.408;2022-07-19T04:22:28;15.17;;;14.17;;
3036;SDS011;1528;52.550;13.408;2022-07-19T04:25:15;13.60;;;12.60;;
3036;SDS011;1528;52.550;13.408;2022-07-19T04:28:00;12.40;;;11.60;;
3036;SDS011;1528;52.550;13.408;2022-07-19T04:30:46;14.00;;;13.10;;
3036;SDS011;1528;52.550;13.408;2022-07-19T04:33:32;13.80;;;13.00;;
3036;SDS011;1528;52.550;13.408;2022-07-19T04:36:17;14.37;;;13.50;;
3036;SDS011;1528;52.550;13.408;2022-07-19T04:39:03;14.97;;;14.07;;
3036;SDS011;1528;52.550;13.408;2022-07-19T04:41:50;16.40;;;15.40;;
3036;SDS011;1528;52.550;13.408;2022-07-19T04:44:35;13.27;;;12.37;;
3036;SDS011;1528;52.550;13.408;2022-07-19T04:47:20;12.40;;;11.60;;
3036;SDS011;1528;52.550;13.408;2022-07-19T04:50:06;13.40;;;12.50;;
3036;SDS011;1528;52.550;13.408;2022-07-19T04:52:53;13.47;;;12.67;;
3036;SDS011;1528;52.550;13.408;2022-07-19T04:55:38;12.60;;;11.80;;
3036;SDS011;1528;52.550;13.408;2022-07-19T04:58:25;11.50;;;10.70;;
3036;SDS011;1528;52.550;13.408;2022-07-19T05:01:11;12.07;;;11.37;;
3036;SDS011;1528;52.550;13.408;2022-07-19T05:03:56;13.03;;;12.07;;
3036;SDS011;1528;52.550;13.408;2022-07-19T05:06:42;14.13;;;13.33;;
3036;SDS011;1528;52.550;13.408;2022-07-19T05:09:28;12.37;;;11.87;;
3036;SDS011;1528;52.550;13.408;2022-07-19T05:12:14;13.50;;;12.63;;
3036;SDS011;1528;52.550;13.408;2022-07-19T05:15:01;13.40;;;12.50;;
3036;SDS011;1528;52.550;13.408;2022-07-19T05:17:46;13.77;;;12.90;;
3036;SDS011;1528;52.550;13.408;2022-07-19T05:20:32;13.30;;;12.30;;
3036;SDS011;1528;52.550;13.408;2022-07-19T05:23:18;13.70;;;12.50;;
3036;SDS011;1528;52.550;13.408;2022-07-19T05:26:03;13.40;;;12.60;;
3036;SDS011;1528;52.550;13.408;2022-07-19T05:28:49;13.73;;;12.93;;
3036;SDS011;1528;52.550;13.408;2022-07-19T05:31:36;14.37;;;13.53;;
3036;SDS011;1528;52.550;13.408;2022-07-19T05:34:21;14.63;;;13.63;;
3036;SDS011;1528;52.550;13.408;2022-07-19T05:37:07;12.97;;;11.87;;
3036;SDS011;1528;52.550;13.408;2022-07-19T05:39:52;12.17;;;11.37;;
3036;SDS011;1528;52.550;13.408;2022-07-19T05:42:38;11.27;;;10.00;;
3036;SDS011;1528;52.550;13.408;2022-07-19T05:45:23;11.57;;;10.77;;
3036;SDS011;1528;52.550;13.408;2022-07-19T05:48:10;11.97;;;11.17;;
3036;SDS011;1528;52.550;13.408;2022-07-19T05:50:56;11.70;;;10.80;;
3036;SDS011;1528;52.550;13.408;2022-07-19T05:53:41;11.50;;;10.70;;
3036;SDS011;1528;52.550;13.408;2022-07-19T05:56:27;11.27;;;10.30;;
3036;SDS011;1528;52.550;13.408;2022-07-19T05:59:13;12.43;;;11.80;;
3036;SDS011;1528;52.550;13.408;2022-07-19T06:01:58;11.77;;;10.83;;
3036;SDS011;1528;52.550;13.408;2022-07-19T06:04:45;11.37;;;10.67;;
3036;SDS011;1528;52.550;13.408;2022-07-19T06:07:31;13.87;;;12.93;;
3036;SDS011;1528;52.550;13.408;2022-07-19T06:10:16;12.83;;;10.87;;
3036;SDS011;1528;52.550;13.408;2022-07-19T06:13:02;13.33;;;12.33;;
3036;SDS011;1528;52.550;13.408;2022-07-19T06:15:47;12.10;;;11.40;;
3036;SDS011;1528;52.550;13.408;2022-07-19T06:18:33;15.20;;;14.20;;
3036;SDS011;1528;52.550;13.408;2022-07-19T06:21:22;14.43;;;13.60;;
3036;SDS011;1528;52.550;13.408;2022-07-19T06:24:08;12.60;;;11.90;;
3036;SDS011;1528;52.550;13.408;2022-07-19T06:26:53;13.57;;;12.77;;
3036;SDS011;1528;52.550;13.408;2022-07-19T06:29:39;12.37;;;11.57;;
3036;SDS011;1528;52.550;13.408;2022-07-19T06:32:24;10.80;;;10.10;;
3036;SDS011;1528;52.550;13.408;2022-07-19T06:35:11;11.20;;;10.60;;
3036;SDS011;1528;52.550;13.408;2022-07-19T06:37:58;13.80;;;13.00;;
3036;SDS011;1528;52.550;13.408;2022-07-19T06:40:43;15.87;;;14.83;;
3036;SDS011;1528;52.550;13.408;2022-07-19T06:43:31;13.10;;;12.10;;
3036;SDS011;1528;52.550;13.408;2022-07-19T06:46:16;11.90;;;11.10;;
3036;SDS011;1528;52.550;13.408;2022-07-19T06:49:02;13.40;;;12.33;;
3036;SDS011;1528;52.550;13.408;2022-07-19T06:51:47;14.60;;;13.80;;
3036;SDS011;1528;52.550;13.408;2022-07-19T06:54:34;12.70;;;12.00;;
3036;SDS011;1528;52.550;13.408;2022-07-19T06:57:20;15.30;;;14.20;;
3036;SDS011;1528;52.550;13.408;2022-07-19T07:00:06;13.13;;;12.13;;
3036;SDS011;1528;52.550;13.408;2022-07-19T07:02:54;12.20;;;11.50;;
3036;SDS011;1528;52.550;13.408;2022-07-19T07:05:39;16.33;;;15.20;;
3036;SDS011;1528;52.550;13.408;2022-07-19T07:08:25;17.70;;;15.97;;
3036;SDS011;1528;52.550;13.408;2022-07-19T07:11:12;15.47;;;14.30;;
3036;SDS011;1528;52.550;13.408;2022-07-19T07:13:57;15.63;;;14.73;;
3036;SDS011;1528;52.550;13.408;2022-07-19T07:16:43;12.90;;;12.20;;
3036;SDS011;1528;52.550;13.408;2022-07-19T07:19:28;13.27;;;12.63;;
3036;SDS011;1528;52.550;13.408;2022-07-19T07:22:14;12.43;;;11.53;;
3036;SDS011;1528;52.550;13.408;2022-07-19T07:25:00;13.80;;;13.10;;
3036;SDS011;1528;52.550;13.408;2022-07-19T07:27:46;13.27;;;12.47;;
3036;SDS011;1528;52.550;13.408;2022-07-19T07:30:32;14.87;;;13.97;;
3036;SDS011;1528;52.550;13.408;2022-07-19T07:33:18;13.80;;;13.00;;
3036;SDS011;1528;52.550;13.408;2022-07-19T07:36:04;16.87;;;15.77;;
3036;SDS011;1528;52.550;13.408;2022-07-19T07:38:49;12.67;;;12.07;;
3036;SDS011;1528;52.550;13.408;2022-07-19T07:41:35;14.77;;;14.07;;
3036;SDS011;1528;52.550;13.408;2022-07-19T07:44:22;18.53;;;17.47;;
3036;SDS011;1528;52.550;13.408;2022-07-19T07:47:07;15.77;;;14.77;;
3036;SDS011;1528;52.550;13.408;2022-07-19T07:49:53;14.23;;;13.43;;
3036;SDS011;1528;52.550;13.408;2022-07-19T07:52:38;13.00;;;12.30;;
3036;SDS011;1528;52.550;13.408;2022-07-19T07:55:24;13.27;;;12.47;;
3036;SDS011;1528;52.550;13.408;2022-07-19T07:58:10;13.63;;;12.60;;
3036;SDS011;1528;52.550;13.408;2022-07-19T08:00:58;14.57;;;13.97;;
3036;SDS011;1528;52.550;13.408;2022-07-19T08:03:43;13.43;;;12.80;;
3036;SDS011;1528;52.550;13.408;2022-07-19T08:06:29;12.93;;;12.23;;
3036;SDS011;1528;52.550;13.408;2022-07-19T08:09:14;14.07;;;13.07;;
3036;SDS011;1528;52.550;13.408;2022-07-19T08:11:59;15.30;;;14.07;;
3036;SDS011;1528;52.550;13.408;2022-07-19T08:14:45;15.03;;;14.23;;
3036;SDS011;1528;52.550;13.408;2022-07-19T08:17:32;11.70;;;11.10;;
3036;SDS011;1528;52.550;13.408;2022-07-19T08:20:18;12.23;;;11.60;;
3036;SDS011;1528;52.550;13.408;2022-07-19T08:23:05;14.73;;;13.93;;
3036;SDS011;1528;52.550;13.408;2022-07-19T08:25:51;15.00;;;14.00;;
3036;SDS011;1528;52.550;13.408;2022-07-19T08:28:36;13.73;;;13.10;;
3036;SDS011;1528;52.550;13.408;2022-07-19T08:31:22;14.37;;;13.43;;
3036;SDS011;1528;52.550;13.408;2022-07-19T08:34:09;13.67;;;12.93;;
3036;SDS011;1528;52.550;13.408;2022-07-19T08:36:54;12.20;;;11.37;;
3036;SDS011;1528;52.550;13.408;2022-07-19T08:39:41;12.40;;;11.60;;
3036;SDS011;1528;52.550;13.408;2022-07-19T08:42:27;10.30;;;9.60;;
3036;SDS011;1528;52.550;13.408;2022-07-19T08:45:12;13.13;;;12.53;;
3036;SDS011;1528;52.550;13.408;2022-07-19T08:47:58;12.77;;;11.97;;
3036;SDS011;1528;52.550;13.408;2022-07-19T08:50:46;11.63;;;10.70;;
3036;SDS011;1528;52.550;13.408;2022-07-19T08:53:32;12.57;;;11.67;;
3036;SDS011;1528;52.550;13.408;2022-07-19T08:56:21;11.63;;;10.93;;
3036;SDS011;1528;52.550;13.408;2022-07-19T08:59:24;12.67;;;11.70;;
3036;SDS011;1528;52.550;13.408;2022-07-19T09:02:10;12.60;;;11.57;;
3036;SDS011;1528;52.550;13.408;2022-07-19T09:04:59;15.07;;;13.97;;
3036;SDS011;1528;52.550;13.408;2022-07-19T09:07:58;12.53;;;11.83;;
3036;SDS011;1528;52.550;13.408;2022-07-19T09:10:46;10.67;;;10.07;;
3036;SDS011;1528;52.550;13.408;2022-07-19T09:13:47;10.43;;;9.93;;
3036;SDS011;1528;52.550;13.408;2022-07-19T09:16:47;10.13;;;9.53;;
3036;SDS011;1528;52.550;13.408;2022-07-19T09:19:41;11.93;;;11.33;;
3036;SDS011;1528;52.550;13.408;2022-07-19T09:22:27;12.73;;;12.03;;
3036;SDS011;1528;52.550;13.408;2022-07-19T09:25:14;10.97;;;10.27;;
3036;SDS011;1528;52.550;13.408;2022-07-19T09:28:18;11.30;;;10.80;;
3036;SDS011;1528;52.550;13.408;2022-07-19T09:31:04;11.60;;;10.80;;
3036;SDS011;1528;52.550;13.408;2022-07-19T09:33:51;12.23;;;11.67;;
3036;SDS011;1528;52.550;13.408;2022-07-19T09:36:37;11.47;;;10.73;;
3036;SDS011;1528;52.550;13.408;2022-07-19T09:39:26;13.90;;;13.40;;
3036;SDS011;1528;52.550;13.408;2022-07-19T09:42:15;11.90;;;11.30;;
3036;SDS011;1528;52.550;13.408;2022-07-19T09:45:02;13.03;;;12.20;;
3036;SDS011;1528;52.550;13.408;2022-07-19T09:47:49;20.90;;;14.30;;
3036;SDS011;1528;52.550;13.408;2022-07-19T09:50:37;13.27;;;12.37;;
3036;SDS011;1528;52.550;13.408;2022-07-19T09:53:23;14.50;;;10.37;;
3036;SDS011;1528;52.550;13.408;2022-07-19T09:56:08;20.60;;;14.23;;
3036;SDS011;1528;52.550;13.408;2022-07-19T09:58:56;11.83;;;10.83;;
3036;SDS011;1528;52.550;13.408;2022-07-19T10:01:43;10.77;;;9.93;;
3036;SDS011;1528;52.550;13.408;2022-07-19T10:04:32;12.27;;;11.67;;
3036;SDS011;1528;52.550;13.408;2022-07-19T10:07:18;13.63;;;12.93;;
3036;SDS011;1528;52.550;13.408;2022-07-19T10:10:04;14.70;;;13.90;;
3036;SDS011;1528;52.550;13.408;2022-07-19T10:12:51;19.70;;;17.60;;
3036;SDS011;1528;52.550;13.408;2022-07-19T10:15:39;13.70;;;12.67;;
3036;SDS011;1528;52.550;13.408;2022-07-19T10:18:28;12.87;;;12.07;;
3036;SDS011;1528;52.550;13.408;2022-07-19T10:21:22;12.33;;;11.83;;
3036;SDS011;1528;52.550;13.408;2022-07-19T10:24:07;10.63;;;10.03;;
3036;SDS011;1528;52.550;13.408;2022-07-19T10:26:55;13.07;;;12.43;;
3036;SDS011;1528;52.550;13.408;2022-07-19T10:29:41;10.90;;;10.50;;
3036;SDS011;1528;52.550;13.408;2022-07-19T10:32:28;13.70;;;12.70;;
3036;SDS011;1528;52.550;13.408;2022-07-19T10:35:15;13.17;;;12.37;;
3036;SDS011;1528;52.550;13.408;2022-07-19T10:38:08;12.60;;;12.00;;
3036;SDS011;1528;52.550;13.408;2022-07-19T10:40:55;13.30;;;12.70;;
3036;SDS011;1528;52.550;13.408;2022-07-19T10:43:43;13.60;;;13.10;;
3036;SDS011;1528;52.550;13.408;2022-07-19T10:46:54;14.10;;;13.30;;
3036;SDS011;1528;52.550;13.408;2022-07-19T10:49:45;14.30;;;13.80;;
3036;SDS011;1528;52.550;13.408;2022-07-19T10:52:31;13.90;;;13.30;;
3036;SDS011;1528;52.550;13.408;2022-07-19T10:55:26;14.50;;;13.70;;
3036;SDS011;1528;52.550;13.408;2022-07-19T10:58:12;11.37;;;10.60;;
3036;SDS011;1528;52.550;13.408;2022-07-19T11:00:58;12.30;;;11.70;;
3036;SDS011;1528;52.550;13.408;2022-07-19T11:07:15;10.60;;;10.00;;
3036;SDS011;1528;52.550;13.408;2022-07-19T11:10:02;12.87;;;12.10;;
3036;SDS011;1528;52.550;13.408;2022-07-19T11:12:48;11.33;;;10.30;;
3036;SDS011;1528;52.550;13.408;2022-07-19T11:15:34;13.50;;;12.80;;
3036;SDS011;1528;52.550;13.408;2022-07-19T11:18:20;14.67;;;13.63;;
3036;SDS011;1528;52.550;13.408;2022-07-19T11:21:05;11.67;;;11.20;;
3036;SDS011;1528;52.550;13.408;2022-07-19T11:23:52;15.07;;;14.13;;
3036;SDS011;1528;52.550;13.408;2022-07-19T11:26:38;18.03;;;16.97;;
3036;SDS011;1528;52.550;13.408;2022-07-19T11:29:25;16.00;;;14.70;;
3036;SDS011;1528;52.550;13.408;2022-07-19T11:32:16;20.03;;;18.60;;
3036;SDS011;1528;52.550;13.408;2022-07-19T11:35:03;16.60;;;15.20;;
3036;SDS011;1528;52.550;13.408;2022-07-19T11:37:51;16.57;;;15.60;;
3036;SDS011;1528;52.550;13.408;2022-07-19T11:40:39;23.13;;;22.17;;
3036;SDS011;1528;52.550;13.408;2022-07-19T11:43:25;18.83;;;17.67;;
3036;SDS011;1528;52.550;13.408;2022-07-19T11:46:10;14.43;;;13.50;;
3036;SDS011;1528;52.550;13.408;2022-07-19T11:49:01;17.27;;;16.00;;
3036;SDS011;1528;52.550;13.408;2022-07-19T11:51:57;19.10;;;17.73;;
3036;SDS011;1528;52.550;13.408;2022-07-19T11:54:56;19.93;;;18.63;;
3036;SDS011;1528;52.550;13.408;2022-07-19T11:57:44;23.00;;;18.57;;
3036;SDS011;1528;52.550;13.408;2022-07-19T12:00:31;16.97;;;16.00;;
3036;SDS011;1528;52.550;13.408;2022-07-19T12:03:18;14.93;;;14.23;;
3036;SDS011;1528;52.550;13.408;2022-07-19T12:06:04;42.53;;;23.07;;
3036;SDS011;1528;52.550;13.408;2022-07-19T12:08:51;26.13;;;22.93;;
3036;SDS011;1528;52.550;13.408;2022-07-19T12:11:37;22.03;;;20.83;;
3036;SDS011;1528;52.550;13.408;2022-07-19T12:14:27;26.07;;;25.17;;
3036;SDS011;1528;52.550;13.408;2022-07-19T12:17:14;20.77;;;19.67;;
3036;SDS011;1528;52.550;13.408;2022-07-19T12:20:07;23.67;;;22.67;;
3036;SDS011;1528;52.550;13.408;2022-07-19T12:22:54;13.87;;;13.17;;
3036;SDS011;1528;52.550;13.408;2022-07-19T12:25:40;15.40;;;14.70;;
3036;SDS011;1528;52.550;13.408;2022-07-19T12:28:25;19.10;;;18.40;;
3036;SDS011;1528;52.550;13.408;2022-07-19T12:31:12;15.57;;;14.67;;
3036;SDS011;1528;52.550;13.408;2022-07-19T12:33:58;16.63;;;15.53;;
3036;SDS011;1528;52.550;13.408;2022-07-19T12:36:44;12.20;;;11.50;;
3036;SDS011;1528;52.550;13.408;2022-07-19T12:39:30;11.43;;;10.82;;
3036;SDS011;1528;52.550;13.408;2022-07-19T12:42:16;11.45;;;10.85;;
3036;SDS011;1528;52.550;13.408;2022-07-19T12:45:01;11.45;;;10.85;;
3036;SDS011;1528;52.550;13.408;2022-07-19T12:47:50;14.63;;;13.43;;
3036;SDS011;1528;52.550;13.408;2022-07-19T12:50:36;74.57;;;35.55;;
3036;SDS011;1528;52.550;13.408;2022-07-19T12:53:23;11.80;;;11.38;;
3036;SDS011;1528;52.550;13.408;2022-07-19T12:56:09;12.73;;;11.93;;
3036;SDS011;1528;52.550;13.408;2022-07-19T12:58:54;15.15;;;14.20;;
3036;SDS011;1528;52.550;13.408;2022-07-19T13:01:57;14.85;;;14.05;;
3036;SDS011;1528;52.550;13.408;2022-07-19T13:04:44;18.40;;;17.02;;
3036;SDS011;1528;52.550;13.408;2022-07-19T13:07:30;16.05;;;15.05;;
3036;SDS011;1528;52.550;13.408;2022-07-19T13:10:15;13.00;;;12.50;;
3036;SDS011;1528;52.550;13.408;2022-07-19T13:13:01;16.02;;;15.23;;
3036;SDS011;1528;52.550;13.408;2022-07-19T13:15:48;14.95;;;14.25;;
3036;SDS011;1528;52.550;13.408;2022-07-19T13:18:34;14.52;;;13.68;;
3036;SDS011;1528;52.550;13.408;2022-07-19T13:21:21;16.88;;;15.40;;
3036;SDS011;1528;52.550;13.408;2022-07-19T13:24:06;12.80;;;12.15;;
3036;SDS011;1528;52.550;13.408;2022-07-19T13:26:55;18.42;;;17.83;;
3036;SDS011;1528;52.550;13.408;2022-07-19T13:29:41;15.15;;;14.05;;
3036;SDS011;1528;52.550;13.408;2022-07-19T13:32:26;14.05;;;13.45;;
3036;SDS011;1528;52.550;13.408;2022-07-19T13:35:14;10.48;;;9.98;;
3036;SDS011;1528;52.550;13.408;2022-07-19T13:38:01;14.27;;;13.45;;
3036;SDS011;1528;52.550;13.408;2022-07-19T13:40:47;10.80;;;10.30;;
3036;SDS011;1528;52.550;13.408;2022-07-19T13:43:34;9.73;;;9.18;;
3036;SDS011;1528;52.550;13.408;2022-07-19T13:46:20;11.95;;;11.45;;
3036;SDS011;1528;52.550;13.408;2022-07-19T13:49:05;14.05;;;13.27;;
3036;SDS011;1528;52.550;13.408;2022-07-19T13:51:51;14.73;;;14.13;;
3036;SDS011;1528;52.550;13.408;2022-07-19T13:54:38;10.85;;;10.45;;
3036;SDS011;1528;52.550;13.408;2022-07-19T13:57:23;12.07;;;11.57;;
3036;SDS011;1528;52.550;13.408;2022-07-19T14:00:09;11.40;;;11.00;;
3036;SDS011;1528;52.550;13.408;2022-07-19T14:02:56;9.50;;;9.10;;
3036;SDS011;1528;52.550;13.408;2022-07-19T14:05:41;9.48;;;9.07;;
3036;SDS011;1528;52.550;13.408;2022-07-19T14:08:30;11.85;;;11.25;;
3036;SDS011;1528;52.550;13.408;2022-07-19T14:11:17;9.73;;;9.43;;
3036;SDS011;1528;52.550;13.408;2022-07-19T14:14:06;10.40;;;9.88;;
3036;SDS011;1528;52.550;13.408;2022-07-19T14:16:51;12.80;;;12.40;;
3036;SDS011;1528;52.550;13.408;2022-07-19T14:19:37;11.60;;;11.20;;
3036;SDS011;1528;52.550;13.408;2022-07-19T14:22:22;11.13;;;10.35;;
3036;SDS011;1528;52.550;13.408;2022-07-19T14:25:08;13.63;;;13.13;;
3036;SDS011;1528;52.550;13.408;2022-07-19T14:27:57;13.70;;;13.10;;
3036;SDS011;1528;52.550;13.408;2022-07-19T14:30:42;14.13;;;13.52;;
3036;SDS011;1528;52.550;13.408;2022-07-19T14:33:28;11.82;;;11.32;;
3036;SDS011;1528;52.550;13.408;2022-07-19T14:36:13;12.38;;;11.98;;
3036;SDS011;1528;52.550;13.408;2022-07-19T14:39:02;12.23;;;11.82;;
3036;SDS011;1528;52.550;13.408;2022-07-19T14:41:47;11.75;;;11.35;;
3036;SDS011;1528;52.550;13.408;2022-07-19T14:44:34;9.98;;;9.57;;
3036;SDS011;1528;52.550;13.408;2022-07-19T14:47:19;11.82;;;11.32;;
3036;SDS011;1528;52.550;13.408;2022-07-19T14:50:06;12.55;;;12.05;;
3036;SDS011;1528;52.550;13.408;2022-07-19T14:52:53;11.60;;;11.00;;
3036;SDS011;1528;52.550;13.408;2022-07-19T14:55:38;8.32;;;7.82;;
3036;SDS011;1528;52.550;13.408;2022-07-19T14:58:24;8.52;;;8.23;;
3036;SDS011;1528;52.550;13.408;2022-07-19T15:01:11;8.18;;;7.78;;
3036;SDS011;1528;52.550;13.408;2022-07-19T15:03:57;7.10;;;6.60;;
3036;SDS011;1528;52.550;13.408;2022-07-19T15:06:42;6.10;;;5.70;;
3036;SDS011;1528;52.550;13.408;2022-07-19T15:09:28;6.80;;;6.40;;
3036;SDS011;1528;52.550;13.408;2022-07-19T15:12:13;6.50;;;5.97;;
3036;SDS011;1528;52.550;13.408;2022-07-19T15:14:59;6.60;;;6.10;;
3036;SDS011;1528;52.550;13.408;2022-07-19T15:17:46;6.60;;;6.20;;
3036;SDS011;1528;52.550;13.408;2022-07-19T15:20:31;5.40;;;5.00;;
3036;SDS011;1528;52.550;13.408;2022-07-19T15:23:17;5.30;;;4.87;;
3036;SDS011;1528;52.550;13.408;2022-07-19T15:26:04;8.63;;;6.20;;
3036;SDS011;1528;52.550;13.408;2022-07-19T15:28:50;7.20;;;6.60;;
3036;SDS011;1528;52.550;13.408;2022-07-19T15:31:36;7.00;;;6.20;;
3036;SDS011;1528;52.550;13.408;2022-07-19T15:34:23;6.10;;;5.70;;
3036;SDS011;1528;52.550;13.408;2022-07-19T15:37:09;6.30;;;5.80;;
3036;SDS011;1528;52.550;13.408;2022-07-19T15:39:54;5.93;;;5.33;;
3036;SDS011;1528;52.550;13.408;2022-07-19T15:42:44;6.53;;;5.93;;
3036;SDS011;1528;52.550;13.408;2022-07-19T15:45:30;7.50;;;5.77;;
3036;SDS011;1528;52.550;13.408;2022-07-19T15:48:16;7.33;;;5.77;;
3036;SDS011;1528;52.550;13.408;2022-07-19T15:51:03;6.73;;;5.97;;
3036;SDS011;1528;52.550;13.408;2022-07-19T15:53:50;5.10;;;4.70;;
3036;SDS011;1528;52.550;13.408;2022-07-19T15:56:36;5.03;;;4.63;;
3036;SDS011;1528;52.550;13.408;2022-07-19T15:59:21;7.60;;;5.43;;
3036;SDS011;1528;52.550;13.408;2022-07-19T16:02:07;4.93;;;4.27;;
3036;SDS011;1528;52.550;13.408;2022-07-19T16:04:53;5.60;;;5.10;;
3036;SDS011;1528;52.550;13.408;2022-07-19T16:07:39;5.10;;;4.73;;
3036;SDS011;1528;52.550;13.408;2022-07-19T16:10:25;6.53;;;5.40;;
3036;SDS011;1528;52.550;13.408;2022-07-19T16:13:10;4.97;;;4.50;;
3036;SDS011;1528;52.550;13.408;2022-07-19T16:15:56;4.10;;;3.70;;
3036;SDS011;1528;52.550;13.408;2022-07-19T16:18:41;5.73;;;4.97;;
3036;SDS011;1528;52.550;13.408;2022-07-19T16:21:27;5.43;;;5.00;;
3036;SDS011;1528;52.550;13.408;2022-07-19T16:24:13;7.00;;;5.00;;
3036;SDS011;1528;52.550;13.408;2022-07-19T16:26:59;5.40;;;5.00;;
3036;SDS011;1528;52.550;13.408;2022-07-19T16:29:44;5.07;;;4.63;;
3036;SDS011;1528;52.550;13.408;2022-07-19T16:32:33;7.50;;;4.63;;
3036;SDS011;1528;52.550;13.408;2022-07-19T16:35:19;4.30;;;3.97;;
3036;SDS011;1528;52.550;13.408;2022-07-19T16:38:04;5.43;;;4.53;;